Time,TemperatureF,DewpointF,PressureIn,WindDirection,WindDirectionDegrees,WindSpeedMPH,WindSpeedGustMPH,Humidity,HourlyPrecipIn,Conditions,Clouds,dailyrainin,SoftwareType,DateUTC
2013-02-01 00:00:00,29.3,16.4,29.92,WNW,297,0.0,1.0,58,0.00,,---,0.69,VWS V14.01,2013-02-01 05:00:00,
2013-02-01 00:01:00,29.2,16.7,29.92,WNW,297,0.0,0.0,59,0.00,,---,0.00,VWS V14.01,2013-02-01 05:01:00,
2013-02-01 00:02:00,29.3,16.8,29.92,WNW,297,0.0,0.0,59,0.00,,---,0.00,VWS V14.01,2013-02-01 05:02:00,
2013-02-01 00:07:00,29.2,16.7,29.91,WNW,297,0.0,1.0,59,0.00,,---,0.00,VWS V14.01,2013-02-01 05:07:00,
2013-02-01 00:12:00,29.2,16.7,29.91,WNW,297,0.0,1.0,59,0.00,,---,0.00,VWS V14.01,2013-02-01 05:12:00,
2013-02-01 00:17:00,29.1,17.0,29.92,WNW,297,0.0,1.0,60,0.00,,---,0.00,VWS V14.01,2013-02-01 05:17:00,
2013-02-01 00:22:00,29.1,17.7,29.92,WNW,297,0.0,1.0,62,0.00,,---,0.00,VWS V14.01,2013-02-01 05:22:00,
2013-02-01 00:27:00,29.0,17.6,29.92,WNW,297,0.0,1.0,62,0.00,,---,0.00,VWS V14.01,2013-02-01 05:27:00,
2013-02-01 00:30:00,27.7,19.2,29.89,WNW,297,0.0,0.0,70,0.00,,---,0.00,VWS V14.01,2013-02-01 05:30:00,
2013-02-01 00:32:00,28.9,17.2,29.91,WNW,297,0.0,0.0,61,0.00,,---,0.00,VWS V14.01,2013-02-01 05:32:00,
2013-02-01 00:37:00,28.9,17.2,29.90,WNW,297,0.0,0.0,61,0.00,,---,0.00,VWS V14.01,2013-02-01 05:37:00,
2013-02-01 00:42:00,28.8,17.8,29.89,WNW,297,0.0,0.0,63,0.00,,---,0.00,VWS V14.01,2013-02-01 05:42:00,
2013-02-01 00:47:00,28.8,18.2,29.89,WNW,297,0.0,0.0,64,0.00,,---,0.00,VWS V14.01,2013-02-01 05:47:00,
2013-02-01 00:52:00,28.7,18.8,29.89,WNW,297,0.0,0.0,66,0.00,,---,0.00,VWS V14.01,2013-02-01 05:52:00,
2013-02-01 00:57:00,28.6,18.7,29.90,WNW,297,0.0,0.0,66,0.00,,---,0.00,VWS V14.01,2013-02-01 05:57:00,
2013-02-01 01:00:00,26.9,19.4,29.90,WNW,297,0.0,0.0,73,0.00,,---,0.00,VWS V14.01,2013-02-01 06:00:00,
2013-02-01 01:02:00,28.4,18.1,29.89,WNW,297,0.0,0.0,65,0.00,,---,0.00,VWS V14.01,2013-02-01 06:02:00,
2013-02-01 01:07:00,28.3,18.1,29.89,WNW,297,0.0,0.0,65,0.00,,---,0.00,VWS V14.01,2013-02-01 06:07:00,
2013-02-01 01:12:00,28.1,18.2,29.89,WNW,297,0.0,0.0,66,0.00,,---,0.00,VWS V14.01,2013-02-01 06:12:00,
2013-02-01 01:17:00,28.0,18.5,29.90,WNW,297,0.0,0.0,67,0.00,,---,0.00,VWS V14.01,2013-02-01 06:17:00,
2013-02-01 01:22:00,27.9,18.7,29.89,WNW,297,0.0,0.0,68,0.00,,---,0.00,VWS V14.01,2013-02-01 06:22:00,
2013-02-01 01:27:00,27.7,18.9,29.89,WNW,297,0.0,0.0,69,0.00,,---,0.00,VWS V14.01,2013-02-01 06:27:00,
2013-02-01 01:30:00,27.4,19.6,29.89,WNW,297,0.0,0.0,72,0.00,,---,0.00,VWS V14.01,2013-02-01 06:30:00,
2013-02-01 01:32:00,27.6,19.1,29.89,WNW,297,0.0,0.0,70,0.00,,---,0.00,VWS V14.01,2013-02-01 06:32:00,
2013-02-01 01:37:00,27.5,19.7,29.90,WNW,297,0.0,0.0,72,0.00,,---,0.00,VWS V14.01,2013-02-01 06:37:00,
2013-02-01 01:42:00,27.4,19.6,29.90,WNW,297,0.0,0.0,72,0.00,,---,0.00,VWS V14.01,2013-02-01 06:42:00,
2013-02-01 01:47:00,27.3,19.8,29.90,WNW,297,0.0,0.0,73,0.00,,---,0.00,VWS V14.01,2013-02-01 06:47:00,
2013-02-01 01:52:00,27.1,19.9,29.90,WNW,297,0.0,0.0,74,0.00,,---,0.00,VWS V14.01,2013-02-01 06:52:00,
2013-02-01 01:57:00,27.0,19.8,29.90,WNW,297,0.0,0.0,74,0.00,,---,0.00,VWS V14.01,2013-02-01 06:57:00,
2013-02-01 02:00:00,29.0,18.7,29.87,SE,127,0.0,1.0,65,0.00,,---,0.00,VWS V14.01,2013-02-01 07:00:00,
2013-02-01 02:02:00,26.9,19.4,29.90,WNW,297,0.0,0.0,73,0.00,,---,0.00,VWS V14.01,2013-02-01 07:02:00,
2013-02-01 02:07:00,26.8,19.0,29.89,WNW,297,0.0,0.0,72,0.00,,---,0.00,VWS V14.01,2013-02-01 07:07:00,
2013-02-01 02:12:00,26.9,19.4,29.89,WNW,297,0.0,0.0,73,0.00,,---,0.00,VWS V14.01,2013-02-01 07:12:00,
2013-02-01 02:17:00,27.0,19.5,29.89,WNW,297,0.0,0.0,73,0.00,,---,0.00,VWS V14.01,2013-02-01 07:17:00,
2013-02-01 02:22:00,27.1,19.3,29.89,WNW,297,0.0,0.0,72,0.00,,---,0.00,VWS V14.01,2013-02-01 07:22:00,
2013-02-01 02:27:00,27.2,19.4,29.89,WNW,297,0.0,0.0,72,0.00,,---,0.00,VWS V14.01,2013-02-01 07:27:00,
2013-02-01 02:30:00,29.8,20.9,29.86,SE,127,0.0,1.0,69,0.00,,---,0.00,VWS V14.01,2013-02-01 07:30:00,
2013-02-01 02:32:00,27.5,19.7,29.89,WNW,297,0.0,0.0,72,0.00,,---,0.00,VWS V14.01,2013-02-01 07:32:00,
2013-02-01 02:37:00,27.6,19.4,29.89,South,172,0.0,1.0,71,0.00,,---,0.00,VWS V14.01,2013-02-01 07:37:00,
2013-02-01 02:42:00,28.0,18.8,29.88,SSE,152,0.0,1.0,68,0.00,,---,0.00,VWS V14.01,2013-02-01 07:42:00,
2013-02-01 02:47:00,28.3,19.5,29.88,SSE,152,0.0,1.0,69,0.00,,---,0.00,VWS V14.01,2013-02-01 07:47:00,
2013-02-01 02:52:00,28.5,19.3,29.88,SSE,152,0.0,1.0,68,0.00,,---,0.00,VWS V14.01,2013-02-01 07:52:00,
2013-02-01 02:57:00,28.8,18.9,29.88,SE,135,0.0,1.0,66,0.00,,---,0.00,VWS V14.01,2013-02-01 07:57:00,
2013-02-01 03:00:00,30.1,19.4,29.84,ESE,105,0.0,3.0,64,0.00,,---,0.00,VWS V14.01,2013-02-01 08:00:00,
2013-02-01 03:02:00,29.1,18.8,29.87,SE,127,0.0,0.0,65,0.00,,---,0.00,VWS V14.01,2013-02-01 08:02:00,
2013-02-01 03:07:00,29.3,20.1,29.86,SE,127,0.0,1.0,68,0.00,,---,0.00,VWS V14.01,2013-02-01 08:07:00,
2013-02-01 03:12:00,29.4,20.5,29.87,SE,127,0.0,1.0,69,0.00,,---,0.00,VWS V14.01,2013-02-01 08:12:00,
2013-02-01 03:17:00,29.5,19.9,29.87,SE,127,0.0,1.0,67,0.00,,---,0.00,VWS V14.01,2013-02-01 08:17:00,
2013-02-01 03:22:00,29.6,19.3,29.87,SE,127,0.0,1.0,65,0.00,,---,0.00,VWS V14.01,2013-02-01 08:22:00,
2013-02-01 03:27:00,29.8,19.8,29.86,SE,127,0.0,1.0,66,0.00,,---,0.00,VWS V14.01,2013-02-01 08:27:00,
2013-02-01 03:30:00,31.1,19.2,29.83,East,94,1.0,3.0,61,0.00,,---,0.00,VWS V14.01,2013-02-01 08:30:00,
2013-02-01 03:32:00,29.9,21.3,29.86,SE,127,0.0,0.0,70,0.00,,---,0.00,VWS V14.01,2013-02-01 08:32:00,
2013-02-01 03:37:00,29.9,21.7,29.85,SE,127,0.0,1.0,71,0.00,,---,0.00,VWS V14.01,2013-02-01 08:37:00,
2013-02-01 03:42:00,29.9,20.6,29.85,SE,127,0.0,1.0,68,0.00,,---,0.00,VWS V14.01,2013-02-01 08:42:00,
2013-02-01 03:47:00,29.9,20.6,29.84,SE,127,0.0,1.0,68,0.00,,---,0.00,VWS V14.01,2013-02-01 08:47:00,
2013-02-01 03:52:00,30.0,20.4,29.84,ESE,110,0.0,1.0,67,0.00,,---,0.00,VWS V14.01,2013-02-01 08:52:00,
2013-02-01 03:57:00,30.0,20.0,29.84,ESE,105,3.0,3.0,66,0.00,,---,0.00,VWS V14.01,2013-02-01 08:57:00,
2013-02-01 04:00:00,31.7,20.6,29.82,WNW,292,0.0,2.0,63,0.00,,---,0.00,VWS V14.01,2013-02-01 09:00:00,
2013-02-01 04:02:00,30.1,19.0,29.84,ESE,111,0.0,2.0,63,0.00,,---,0.00,VWS V14.01,2013-02-01 09:02:00,
2013-02-01 04:07:00,30.3,18.9,29.83,SSE,147,1.0,2.0,62,0.00,,---,0.00,VWS V14.01,2013-02-01 09:07:00,
2013-02-01 04:12:00,30.5,19.0,29.83,ESE,122,0.0,3.0,62,0.00,,---,0.00,VWS V14.01,2013-02-01 09:12:00,
2013-02-01 04:17:00,30.6,18.8,29.83,West,264,0.0,3.0,61,0.00,,---,0.00,VWS V14.01,2013-02-01 09:17:00,
2013-02-01 04:22:00,30.8,19.0,29.83,ENE,77,0.0,3.0,61,0.00,,---,0.00,VWS V14.01,2013-02-01 09:22:00,
2013-02-01 04:27:00,31.0,19.1,29.82,East,94,0.0,3.0,61,0.00,,---,0.00,VWS V14.01,2013-02-01 09:27:00,
2013-02-01 04:30:00,32.7,25.0,29.82,West,272,0.0,2.0,73,0.00,,---,0.00,VWS V14.01,2013-02-01 09:30:00,
2013-02-01 04:32:00,31.1,19.2,29.83,East,94,0.0,1.0,61,0.00,,---,0.00,VWS V14.01,2013-02-01 09:32:00,
2013-02-01 04:37:00,31.2,19.0,29.83,South,190,0.0,2.0,60,0.00,,---,0.00,VWS V14.01,2013-02-01 09:37:00,
2013-02-01 04:42:00,31.4,19.5,29.83,WNW,291,0.0,2.0,61,0.00,,---,0.00,VWS V14.01,2013-02-01 09:42:00,
2013-02-01 04:47:00,31.4,19.5,29.82,WNW,292,0.0,2.0,61,0.00,,---,0.00,VWS V14.01,2013-02-01 09:47:00,
2013-02-01 04:52:00,31.5,20.0,29.82,WNW,292,0.0,2.0,62,0.00,,---,0.00,VWS V14.01,2013-02-01 09:52:00,
2013-02-01 04:57:00,31.6,20.5,29.82,WNW,292,0.0,2.0,63,0.00,,---,0.00,VWS V14.01,2013-02-01 09:57:00,
2013-02-01 05:00:00,32.9,26.2,29.83,West,272,0.0,1.0,76,0.00,,---,0.00,VWS V14.01,2013-02-01 10:00:00,
2013-02-01 05:02:00,31.7,20.6,29.82,WNW,292,0.0,1.0,63,0.00,,---,0.00,VWS V14.01,2013-02-01 10:02:00,
2013-02-01 05:07:00,31.8,21.0,29.83,WNW,292,1.0,1.0,64,0.00,,---,0.00,VWS V14.01,2013-02-01 10:07:00,
2013-02-01 05:12:00,32.0,21.6,29.82,West,264,1.0,2.0,65,0.00,,---,0.00,VWS V14.01,2013-02-01 10:12:00,
2013-02-01 05:17:00,32.2,22.5,29.83,West,272,0.0,2.0,67,0.00,,---,0.00,VWS V14.01,2013-02-01 10:17:00,
2013-02-01 05:22:00,32.5,23.8,29.82,West,272,0.0,2.0,70,0.00,,---,0.00,VWS V14.01,2013-02-01 10:22:00,
2013-02-01 05:27:00,32.6,24.2,29.82,West,272,0.0,2.0,71,0.00,,---,0.00,VWS V14.01,2013-02-01 10:27:00,
2013-02-01 05:30:00,32.2,26.4,29.86,South,181,0.0,3.0,79,0.00,,---,0.00,VWS V14.01,2013-02-01 10:30:00,
2013-02-01 05:32:00,32.7,25.0,29.82,West,272,0.0,0.0,73,0.00,,---,0.00,VWS V14.01,2013-02-01 10:32:00,
2013-02-01 05:37:00,32.7,25.3,29.82,West,272,0.0,0.0,74,0.00,,---,0.00,VWS V14.01,2013-02-01 10:37:00,
2013-02-01 05:42:00,32.8,25.4,29.82,West,272,0.0,1.0,74,0.00,,---,0.00,VWS V14.01,2013-02-01 10:42:00,
2013-02-01 05:47:00,32.8,25.8,29.83,West,272,0.0,1.0,75,0.00,,---,0.00,VWS V14.01,2013-02-01 10:47:00,
2013-02-01 05:52:00,32.8,25.8,29.82,West,272,0.0,1.0,75,0.00,,---,0.00,VWS V14.01,2013-02-01 10:52:00,
2013-02-01 05:57:00,32.9,26.2,29.82,West,272,0.0,1.0,76,0.00,,---,0.00,VWS V14.01,2013-02-01 10:57:00,
2013-02-01 06:00:00,30.9,26.9,29.89,NW,307,0.0,3.0,85,0.00,,---,0.00,VWS V14.01,2013-02-01 11:00:00,
2013-02-01 06:02:00,32.8,26.1,29.83,West,272,0.0,0.0,76,0.00,,---,0.00,VWS V14.01,2013-02-01 11:02:00,
2013-02-01 06:07:00,32.8,26.1,29.83,West,272,0.0,0.0,76,0.00,,---,0.00,VWS V14.01,2013-02-01 11:07:00,
2013-02-01 06:12:00,32.8,26.1,29.84,West,273,2.0,2.0,76,0.00,,---,0.00,VWS V14.01,2013-02-01 11:12:00,
2013-02-01 06:17:00,32.7,26.3,29.85,WNW,295,1.0,2.0,77,0.00,,---,0.00,VWS V14.01,2013-02-01 11:17:00,
2013-02-01 06:22:00,32.5,26.1,29.85,WNW,294,0.0,3.0,77,0.00,,---,0.00,VWS V14.01,2013-02-01 11:22:00,
2013-02-01 06:27:00,32.3,25.9,29.86,South,181,0.0,3.0,77,0.00,,---,0.00,VWS V14.01,2013-02-01 11:27:00,
2013-02-01 06:30:00,32.2,26.4,29.86,South,181,0.0,3.0,79,0.00,,---,0.00,VWS V14.01,2013-02-01 11:30:00,
2013-02-01 06:32:00,32.1,26.3,29.86,South,181,0.0,1.0,79,0.00,,---,0.00,VWS V14.01,2013-02-01 11:32:00,
2013-02-01 06:37:00,32.0,26.5,29.87,South,181,0.0,1.0,80,0.00,,---,0.00,VWS V14.01,2013-02-01 11:37:00,
2013-02-01 06:42:00,31.9,27.0,29.87,West,281,2.0,2.0,82,0.00,,---,0.00,VWS V14.01,2013-02-01 11:42:00,
2013-02-01 06:47:00,31.6,27.0,29.88,West,276,0.0,3.0,83,0.00,,---,0.00,VWS V14.01,2013-02-01 11:47:00,
2013-02-01 06:52:00,31.3,27.0,29.88,WSW,249,2.0,3.0,84,0.00,,---,0.00,VWS V14.01,2013-02-01 11:52:00,
2013-02-01 06:57:00,31.0,27.0,29.89,NW,306,0.0,3.0,85,0.00,,---,0.00,VWS V14.01,2013-02-01 11:57:00,
2013-02-01 07:00:00,28.7,25.6,29.94,NE,39,1.0,7.0,88,0.00,,---,0.00,VWS V14.01,2013-02-01 12:00:00,
2013-02-01 07:02:00,30.8,26.8,29.89,WNW,303,2.0,2.0,85,0.00,,---,0.00,VWS V14.01,2013-02-01 12:02:00,
2013-02-01 07:07:00,30.6,26.9,29.90,NW,326,3.0,3.0,86,0.00,,---,0.00,VWS V14.01,2013-02-01 12:07:00,
2013-02-01 07:12:00,30.3,26.9,29.90,NNW,334,2.0,4.0,87,0.00,,---,0.00,VWS V14.01,2013-02-01 12:12:00,
2013-02-01 07:17:00,30.1,26.7,29.90,WNW,300,1.0,4.0,87,0.00,,---,0.00,VWS V14.01,2013-02-01 12:17:00,
2013-02-01 07:22:00,29.9,26.5,29.91,WSW,250,0.0,4.0,87,0.00,,---,0.00,VWS V14.01,2013-02-01 12:22:00,
2013-02-01 07:27:00,29.8,26.7,29.91,WNW,288,2.0,4.0,88,0.00,,---,0.00,VWS V14.01,2013-02-01 12:27:00,
2013-02-01 07:30:00,29.0,24.2,29.95,WNW,285,1.0,9.0,82,0.00,,---,0.00,VWS V14.01,2013-02-01 12:30:00,
2013-02-01 07:32:00,29.6,26.5,29.92,NW,305,0.0,2.0,88,0.00,,---,0.00,VWS V14.01,2013-02-01 12:32:00,
2013-02-01 07:37:00,29.5,26.7,29.92,NNW,333,2.0,4.0,89,0.00,,---,0.00,VWS V14.01,2013-02-01 12:37:00,
2013-02-01 07:42:00,29.3,26.5,29.93,WNW,283,1.0,7.0,89,0.00,,---,0.00,VWS V14.01,2013-02-01 12:42:00,
2013-02-01 07:47:00,29.1,26.3,29.93,North,1,1.0,7.0,89,0.00,,---,0.00,VWS V14.01,2013-02-01 12:47:00,
2013-02-01 07:52:00,28.9,25.8,29.93,NNW,344,2.0,7.0,88,0.00,,---,0.00,VWS V14.01,2013-02-01 12:52:00,
2013-02-01 07:57:00,28.8,25.7,29.93,WNW,290,1.0,7.0,88,0.00,,---,0.00,VWS V14.01,2013-02-01 12:57:00,
2013-02-01 08:00:00,28.7,20.8,29.98,NE,38,2.0,14.0,72,0.00,,---,0.00,VWS V14.01,2013-02-01 13:00:00,
2013-02-01 08:02:00,28.7,25.6,29.94,North,355,2.0,2.0,88,0.00,,---,0.00,VWS V14.01,2013-02-01 13:02:00,
2013-02-01 08:07:00,28.6,25.2,29.94,North,1,0.0,2.0,87,0.00,,---,0.00,VWS V14.01,2013-02-01 13:07:00,
2013-02-01 08:12:00,28.7,25.0,29.94,WNW,288,0.0,2.0,86,0.00,,---,0.00,VWS V14.01,2013-02-01 13:12:00,
2013-02-01 08:17:00,28.7,25.3,29.94,NNW,348,1.0,4.0,87,0.00,,---,0.00,VWS V14.01,2013-02-01 13:17:00,
2013-02-01 08:22:00,28.9,25.0,29.95,NW,317,1.0,4.0,85,0.00,,---,0.00,VWS V14.01,2013-02-01 13:22:00,
2013-02-01 08:27:00,29.0,24.5,29.95,West,271,1.0,4.0,83,0.00,,---,0.00,VWS V14.01,2013-02-01 13:27:00,
2013-02-01 08:30:00,29.3,16.8,30.00,WSW,238,3.0,14.0,59,0.00,,---,0.00,VWS V14.01,2013-02-01 13:30:00,
2013-02-01 08:32:00,29.0,24.2,29.95,North,356,2.0,4.0,82,0.00,,---,0.00,VWS V14.01,2013-02-01 13:32:00,
2013-02-01 08:37:00,29.0,23.9,29.96,SW,224,5.0,9.0,81,0.00,,---,0.00,VWS V14.01,2013-02-01 13:37:00,
2013-02-01 08:42:00,29.1,23.7,29.96,West,276,1.0,9.0,80,0.00,,---,0.00,VWS V14.01,2013-02-01 13:42:00,
2013-02-01 08:47:00,29.1,23.4,29.97,NNW,344,2.0,9.0,79,0.00,,---,0.00,VWS V14.01,2013-02-01 13:47:00,
2013-02-01 08:52:00,29.0,22.1,29.97,NNE,27,2.0,12.0,75,0.00,,---,0.00,VWS V14.01,2013-02-01 13:52:00,
2013-02-01 08:57:00,28.9,21.0,29.98,NNW,345,3.0,12.0,72,0.00,,---,0.00,VWS V14.01,2013-02-01 13:57:00,
2013-02-01 09:00:00,28.9,13.1,30.03,North,360,8.0,16.0,51,0.00,,---,0.00,VWS V14.01,2013-02-01 14:00:00,
2013-02-01 09:02:00,28.6,20.1,29.98,North,6,2.0,5.0,70,0.00,,---,0.00,VWS V14.01,2013-02-01 14:02:00,
2013-02-01 09:07:00,28.4,19.5,29.99,WNW,295,2.0,11.0,69,0.00,,---,0.00,VWS V14.01,2013-02-01 14:07:00,
2013-02-01 09:12:00,28.4,18.1,29.99,WNW,296,1.0,12.0,65,0.00,,---,0.00,VWS V14.01,2013-02-01 14:12:00,
2013-02-01 09:17:00,28.7,17.7,29.99,WNW,286,1.0,12.0,63,0.00,,---,0.00,VWS V14.01,2013-02-01 14:17:00,
2013-02-01 09:22:00,29.0,17.2,30.00,WNW,293,4.0,13.0,61,0.00,,---,0.00,VWS V14.01,2013-02-01 14:22:00,
2013-02-01 09:27:00,29.3,16.8,30.00,NW,319,7.0,14.0,59,0.00,,---,0.00,VWS V14.01,2013-02-01 14:27:00,
2013-02-01 09:30:00,29.1,13.7,30.05,ENE,62,2.0,14.0,52,0.01,,---,0.01,VWS V14.01,2013-02-01 14:30:00,
2013-02-01 09:32:00,29.3,16.0,30.00,West,266,8.0,11.0,57,0.00,,---,0.00,VWS V14.01,2013-02-01 14:32:00,
2013-02-01 09:37:00,29.1,15.8,30.01,SW,222,4.0,16.0,57,0.00,,---,0.00,VWS V14.01,2013-02-01 14:37:00,
2013-02-01 09:42:00,29.0,15.7,30.02,West,268,2.0,16.0,57,0.00,,---,0.00,VWS V14.01,2013-02-01 14:42:00,
2013-02-01 09:47:00,28.5,13.6,30.02,NNW,330,5.0,16.0,53,0.00,,---,0.00,VWS V14.01,2013-02-01 14:47:00,
2013-02-01 09:52:00,28.3,13.8,30.02,NW,309,3.0,16.0,54,0.00,,---,0.00,VWS V14.01,2013-02-01 14:52:00,
2013-02-01 09:57:00,28.4,13.0,30.03,NNW,342,3.0,16.0,52,0.00,,---,0.00,VWS V14.01,2013-02-01 14:57:00,
2013-02-01 10:00:00,29.7,13.8,30.06,North,352,5.0,11.0,51,0.01,,---,0.01,VWS V14.01,2013-02-01 15:00:00,
2013-02-01 10:02:00,28.9,13.1,30.03,WNW,283,7.0,9.0,51,0.00,,---,0.00,VWS V14.01,2013-02-01 15:02:00,
2013-02-01 10:07:00,28.8,13.0,30.03,West,273,2.0,12.0,51,0.00,,---,0.00,VWS V14.01,2013-02-01 15:07:00,
2013-02-01 10:12:00,28.8,12.5,30.03,WSW,250,8.0,12.0,50,0.00,,---,0.00,VWS V14.01,2013-02-01 15:12:00,
2013-02-01 10:17:00,28.8,13.4,30.04,NNW,338,3.0,12.0,52,0.00,,---,0.00,VWS V14.01,2013-02-01 15:17:00,
2013-02-01 10:22:00,28.9,13.1,30.04,NW,316,2.0,13.0,51,0.00,,---,0.00,VWS V14.01,2013-02-01 15:22:00,
2013-02-01 10:27:00,28.8,13.8,30.05,North,4,4.0,13.0,53,0.00,,---,0.00,VWS V14.01,2013-02-01 15:27:00,
2013-02-01 10:30:00,29.0,12.2,30.08,West,269,9.0,23.0,49,0.01,,---,0.01,VWS V14.01,2013-02-01 15:30:00,
2013-02-01 10:32:00,29.0,13.6,30.04,WNW,294,3.0,7.0,52,0.01,,---,0.01,VWS V14.01,2013-02-01 15:32:00,
2013-02-01 10:37:00,29.4,14.4,30.05,WNW,290,3.0,11.0,53,0.01,,---,0.01,VWS V14.01,2013-02-01 15:37:00,
2013-02-01 10:42:00,29.3,13.9,30.05,NW,323,3.0,11.0,52,0.01,,---,0.01,VWS V14.01,2013-02-01 15:42:00,
2013-02-01 10:47:00,29.2,13.8,30.06,NNE,15,3.0,11.0,52,0.01,,---,0.01,VWS V14.01,2013-02-01 15:47:00,
2013-02-01 10:52:00,29.7,13.8,30.07,NW,313,1.0,11.0,51,0.01,,---,0.01,VWS V14.01,2013-02-01 15:52:00,
2013-02-01 10:57:00,29.6,14.6,30.07,WNW,288,1.0,11.0,53,0.01,,---,0.01,VWS V14.01,2013-02-01 15:57:00,
2013-02-01 11:00:00,28.9,11.7,30.10,NW,321,3.0,18.0,48,0.00,,---,0.01,VWS V14.01,2013-02-01 16:00:00,
2013-02-01 11:02:00,29.6,14.1,30.07,WNW,287,5.0,10.0,52,0.01,,---,0.01,VWS V14.01,2013-02-01 16:02:00,
2013-02-01 11:07:00,29.0,12.2,30.07,NNW,332,4.0,11.0,49,0.01,,---,0.01,VWS V14.01,2013-02-01 16:07:00,
2013-02-01 11:12:00,28.4,11.7,30.08,NW,320,3.0,11.0,49,0.01,,---,0.01,VWS V14.01,2013-02-01 16:12:00,
2013-02-01 11:17:00,28.3,11.6,30.08,WNW,297,2.0,11.0,49,0.01,,---,0.01,VWS V14.01,2013-02-01 16:17:00,
2013-02-01 11:22:00,28.5,12.2,30.08,NNW,332,2.0,23.0,50,0.01,,---,0.01,VWS V14.01,2013-02-01 16:22:00,
2013-02-01 11:27:00,28.6,11.9,30.08,West,266,4.0,23.0,49,0.01,,---,0.01,VWS V14.01,2013-02-01 16:27:00,
2013-02-01 11:30:00,29.3,12.1,30.10,SSW,203,4.0,16.0,48,0.00,,---,0.01,VWS V14.01,2013-02-01 16:30:00,
2013-02-01 11:32:00,28.9,11.2,30.08,WNW,285,9.0,13.0,47,0.00,,---,0.01,VWS V14.01,2013-02-01 16:32:00,
2013-02-01 11:37:00,29.2,13.3,30.10,WNW,286,2.0,13.0,51,0.00,,---,0.01,VWS V14.01,2013-02-01 16:37:00,
2013-02-01 11:42:00,29.0,10.8,30.10,NNW,348,2.0,13.0,46,0.00,,---,0.01,VWS V14.01,2013-02-01 16:42:00,
2013-02-01 11:47:00,28.5,11.3,30.10,SW,218,7.0,18.0,48,0.00,,---,0.01,VWS V14.01,2013-02-01 16:47:00,
2013-02-01 11:52:00,29.0,10.8,30.10,West,281,5.0,18.0,46,0.00,,---,0.01,VWS V14.01,2013-02-01 16:52:00,
2013-02-01 11:57:00,29.1,11.4,30.10,West,279,6.0,18.0,47,0.00,,---,0.01,VWS V14.01,2013-02-01 16:57:00,
2013-02-01 12:00:00,28.9,11.7,30.10,NW,321,3.0,18.0,48,0.00,,---,0.01,VWS V14.01,2013-02-01 17:00:00,
2013-02-01 12:02:00,28.9,11.2,30.10,NW,324,4.0,8.0,47,0.00,,---,0.01,VWS V14.01,2013-02-01 17:02:00,
2013-02-01 12:07:00,28.8,11.1,30.10,North,354,4.0,12.0,47,0.00,,---,0.01,VWS V14.01,2013-02-01 17:07:00,
2013-02-01 12:12:00,28.6,10.5,30.10,WNW,293,5.0,16.0,46,0.00,,---,0.01,VWS V14.01,2013-02-01 17:12:00,
2013-02-01 12:17:00,28.5,10.9,30.10,NW,316,4.0,16.0,47,0.00,,---,0.01,VWS V14.01,2013-02-01 17:17:00,
2013-02-01 12:21:00,28.5,10.9,30.11,NW,313,5.0,16.0,47,0.00,,---,0.01,VWS V14.01,2013-02-01 17:21:00,
2013-02-01 12:26:00,29.0,11.8,30.11,WSW,243,2.0,16.0,48,0.00,,---,0.01,VWS V14.01,2013-02-01 17:26:00,
2013-02-01 12:30:00,29.7,11.5,30.12,WSW,243,2.0,17.0,46,0.00,,---,0.01,VWS V14.01,2013-02-01 17:30:00,
2013-02-01 12:31:00,29.3,11.1,30.11,WNW,293,6.0,11.0,46,0.00,,---,0.01,VWS V14.01,2013-02-01 17:31:00,
2013-02-01 12:36:00,29.0,11.3,30.11,West,266,5.0,11.0,47,0.00,,---,0.01,VWS V14.01,2013-02-01 17:36:00,
2013-02-01 12:41:00,28.8,10.6,30.11,NW,315,3.0,11.0,46,0.00,,---,0.01,VWS V14.01,2013-02-01 17:41:00,
2013-02-01 12:46:00,29.0,11.3,30.12,WNW,286,6.0,11.0,47,0.00,,---,0.01,VWS V14.01,2013-02-01 17:46:00,
2013-02-01 12:51:00,29.1,9.4,30.12,West,281,12.0,13.0,43,0.00,,---,0.01,VWS V14.01,2013-02-01 17:51:00,
2013-02-01 12:56:00,28.7,8.5,30.12,West,263,9.0,13.0,42,0.00,,---,0.01,VWS V14.01,2013-02-01 17:56:00,
2013-02-01 13:00:00,29.0,8.8,30.13,WSW,241,6.0,20.0,42,0.00,,---,0.01,VWS V14.01,2013-02-01 18:00:00,
2013-02-01 13:01:00,29.1,11.4,30.12,WNW,288,9.0,9.0,47,0.00,,---,0.01,VWS V14.01,2013-02-01 18:01:00,
2013-02-01 13:06:00,29.3,10.1,30.12,WNW,288,6.0,17.0,44,0.00,,---,0.01,VWS V14.01,2013-02-01 18:06:00,
2013-02-01 13:11:00,29.2,9.0,30.11,North,356,6.0,17.0,42,0.00,,---,0.01,VWS V14.01,2013-02-01 18:11:00,
2013-02-01 13:16:00,29.4,10.2,30.12,WNW,301,2.0,17.0,44,0.00,,---,0.01,VWS V14.01,2013-02-01 18:16:00,
2013-02-01 13:21:00,29.5,10.8,30.11,North,360,6.0,17.0,45,0.00,,---,0.01,VWS V14.01,2013-02-01 18:21:00,
2013-02-01 13:26:00,29.5,12.2,30.12,West,265,11.0,17.0,48,0.00,,---,0.01,VWS V14.01,2013-02-01 18:26:00,
2013-02-01 13:30:00,29.7,11.5,30.12,WSW,243,2.0,17.0,46,0.00,,---,0.01,VWS V14.01,2013-02-01 18:30:00,
2013-02-01 13:31:00,29.8,11.6,30.12,WSW,248,4.0,13.0,46,0.00,,---,0.01,VWS V14.01,2013-02-01 18:31:00,
2013-02-01 13:36:00,29.6,10.9,30.12,West,271,4.0,13.0,45,0.00,,---,0.01,VWS V14.01,2013-02-01 18:36:00,
2013-02-01 13:41:00,29.7,11.5,30.12,NNE,19,6.0,13.0,46,0.00,,---,0.01,VWS V14.01,2013-02-01 18:41:00,
2013-02-01 13:46:00,29.4,8.1,30.12,WNW,282,6.0,20.0,40,0.00,,---,0.01,VWS V14.01,2013-02-01 18:46:00,
2013-02-01 13:51:00,29.2,9.0,30.13,WNW,296,7.0,20.0,42,0.00,,---,0.01,VWS V14.01,2013-02-01 18:51:00,
2013-02-01 13:56:00,29.0,9.8,30.13,WNW,303,1.0,20.0,44,0.00,,---,0.01,VWS V14.01,2013-02-01 18:56:00,
2013-02-01 14:00:00,28.5,7.8,30.16,WSW,254,6.0,19.0,41,0.00,,---,0.01,VWS V14.01,2013-02-01 19:00:00,
2013-02-01 14:01:00,29.0,9.3,30.13,NNW,328,11.0,11.0,43,0.00,,---,0.01,VWS V14.01,2013-02-01 19:01:00,
2013-02-01 14:06:00,28.8,9.1,30.14,West,281,4.0,11.0,43,0.00,,---,0.01,VWS V14.01,2013-02-01 19:06:00,
2013-02-01 14:11:00,29.0,9.3,30.14,West,279,4.0,11.0,43,0.00,,---,0.01,VWS V14.01,2013-02-01 19:11:00,
2013-02-01 14:16:00,29.3,9.1,30.14,NW,308,3.0,11.0,42,0.00,,---,0.01,VWS V14.01,2013-02-01 19:16:00,
2013-02-01 14:21:00,29.0,10.3,30.14,NNW,347,5.0,11.0,45,0.00,,---,0.01,VWS V14.01,2013-02-01 19:21:00,
2013-02-01 14:26:00,28.3,8.7,30.15,NW,304,8.0,12.0,43,0.00,,---,0.01,VWS V14.01,2013-02-01 19:26:00,
2013-02-01 14:30:00,27.8,8.2,30.18,NW,323,5.0,14.0,43,0.00,,---,0.01,VWS V14.01,2013-02-01 19:30:00,
2013-02-01 14:31:00,28.0,7.9,30.15,WSW,249,7.0,16.0,42,0.00,,---,0.01,VWS V14.01,2013-02-01 19:31:00,
2013-02-01 14:36:00,28.3,8.2,30.16,WNW,294,16.0,19.0,42,0.00,,---,0.01,VWS V14.01,2013-02-01 19:36:00,
2013-02-01 14:41:00,28.2,7.5,30.16,West,265,6.0,19.0,41,0.00,,---,0.01,VWS V14.01,2013-02-01 19:41:00,
2013-02-01 14:46:00,28.5,8.3,30.16,West,266,5.0,19.0,42,0.00,,---,0.01,VWS V14.01,2013-02-01 19:46:00,
2013-02-01 14:51:00,28.4,8.2,30.16,WNW,294,1.0,19.0,42,0.00,,---,0.01,VWS V14.01,2013-02-01 19:51:00,
2013-02-01 14:56:00,28.6,8.4,30.16,WNW,284,9.0,19.0,42,0.00,,---,0.01,VWS V14.01,2013-02-01 19:56:00,
2013-02-01 15:00:00,27.9,7.3,30.20,WNW,282,1.0,13.0,41,0.00,,---,0.01,VWS V14.01,2013-02-01 20:00:00,
2013-02-01 15:01:00,28.4,7.7,30.16,West,276,2.0,6.0,41,0.00,,---,0.01,VWS V14.01,2013-02-01 20:01:00,
2013-02-01 15:06:00,28.2,7.5,30.16,WNW,288,4.0,12.0,41,0.00,,---,0.01,VWS V14.01,2013-02-01 20:06:00,
2013-02-01 15:11:00,27.9,8.3,30.17,WNW,286,5.0,12.0,43,0.00,,---,0.01,VWS V14.01,2013-02-01 20:11:00,
2013-02-01 15:16:00,27.9,7.8,30.17,West,271,2.0,13.0,42,0.00,,---,0.01,VWS V14.01,2013-02-01 20:16:00,
2013-02-01 15:21:00,27.7,7.6,30.17,WSW,255,4.0,13.0,42,0.00,,---,0.01,VWS V14.01,2013-02-01 20:21:00,
2013-02-01 15:26:00,27.6,8.0,30.18,West,281,3.0,14.0,43,0.00,,---,0.01,VWS V14.01,2013-02-01 20:26:00,
2013-02-01 15:30:00,27.0,8.5,30.21,WNW,303,3.0,11.0,45,0.00,,---,0.01,VWS V14.01,2013-02-01 20:30:00,
2013-02-01 15:31:00,27.9,8.3,30.18,NNW,333,2.0,5.0,43,0.00,,---,0.01,VWS V14.01,2013-02-01 20:31:00,
2013-02-01 15:36:00,28.2,8.6,30.18,North,353,2.0,10.0,43,0.00,,---,0.01,VWS V14.01,2013-02-01 20:36:00,
2013-02-01 15:41:00,28.2,7.5,30.19,ESE,116,1.0,10.0,41,0.00,,---,0.01,VWS V14.01,2013-02-01 20:41:00,
2013-02-01 15:46:00,28.0,7.4,30.19,WNW,288,3.0,10.0,41,0.00,,---,0.01,VWS V14.01,2013-02-01 20:46:00,
2013-02-01 15:51:00,27.8,7.7,30.19,WNW,283,6.0,10.0,42,0.00,,---,0.01,VWS V14.01,2013-02-01 20:51:00,
2013-02-01 15:56:00,27.9,7.3,30.19,WNW,285,3.0,13.0,41,0.00,,---,0.01,VWS V14.01,2013-02-01 20:56:00,
2013-02-01 16:00:00,26.6,7.6,30.23,NNW,340,3.0,12.0,44,0.00,,---,0.01,VWS V14.01,2013-02-01 21:00:00,
2013-02-01 16:01:00,28.0,7.9,30.19,West,266,3.0,3.0,42,0.00,,---,0.01,VWS V14.01,2013-02-01 21:01:00,
2013-02-01 16:06:00,27.9,8.3,30.20,WNW,288,1.0,11.0,43,0.00,,---,0.01,VWS V14.01,2013-02-01 21:06:00,
2013-02-01 16:11:00,27.7,7.1,30.21,West,266,4.0,11.0,41,0.00,,---,0.01,VWS V14.01,2013-02-01 21:11:00,
2013-02-01 16:16:00,27.4,7.3,30.21,WNW,301,4.0,11.0,42,0.00,,---,0.01,VWS V14.01,2013-02-01 21:16:00,
2013-02-01 16:21:00,27.2,7.7,30.21,WNW,288,0.0,11.0,43,0.00,,---,0.01,VWS V14.01,2013-02-01 21:21:00,
2013-02-01 16:26:00,27.1,8.6,30.21,NNW,335,0.0,11.0,45,0.00,,---,0.01,VWS V14.01,2013-02-01 21:26:00,
2013-02-01 16:30:00,26.0,7.1,30.24,West,264,4.0,11.0,44,0.00,,---,0.01,VWS V14.01,2013-02-01 21:30:00,
2013-02-01 16:31:00,27.0,8.5,30.22,WNW,288,4.0,4.0,45,0.00,,---,0.01,VWS V14.01,2013-02-01 21:31:00,
2013-02-01 16:36:00,27.0,8.0,30.22,WNW,287,5.0,8.0,44,0.00,,---,0.01,VWS V14.01,2013-02-01 21:36:00,
2013-02-01 16:41:00,27.0,7.5,30.22,WSW,248,3.0,11.0,43,0.00,,---,0.01,VWS V14.01,2013-02-01 21:41:00,
2013-02-01 16:46:00,27.0,7.0,30.22,NE,41,3.0,12.0,42,0.00,,---,0.01,VWS V14.01,2013-02-01 21:46:00,
2013-02-01 16:51:00,26.9,7.4,30.23,West,264,3.0,12.0,43,0.00,,---,0.01,VWS V14.01,2013-02-01 21:51:00,
2013-02-01 16:56:00,26.7,7.7,30.23,NW,314,3.0,12.0,44,0.00,,---,0.01,VWS V14.01,2013-02-01 21:56:00,
2013-02-01 17:00:00,25.6,7.2,30.26,WNW,294,1.0,11.0,45,0.00,,---,0.01,VWS V14.01,2013-02-01 22:00:00,
2013-02-01 17:01:00,26.6,7.6,30.23,West,274,4.0,8.0,44,0.00,,---,0.01,VWS V14.01,2013-02-01 22:01:00,
2013-02-01 17:06:00,26.5,7.0,30.23,West,269,8.0,11.0,43,0.00,,---,0.01,VWS V14.01,2013-02-01 22:06:00,
2013-02-01 17:11:00,26.3,7.4,30.24,West,264,1.0,11.0,44,0.00,,---,0.01,VWS V14.01,2013-02-01 22:11:00,
2013-02-01 17:16:00,26.3,8.4,30.24,WNW,300,1.0,11.0,46,0.00,,---,0.01,VWS V14.01,2013-02-01 22:16:00,
2013-02-01 17:21:00,26.1,7.7,30.24,WNW,290,3.0,11.0,45,0.00,,---,0.01,VWS V14.01,2013-02-01 22:21:00,
2013-02-01 17:26:00,26.1,8.2,30.24,NW,314,0.0,11.0,46,0.00,,---,0.01,VWS V14.01,2013-02-01 22:26:00,
2013-02-01 17:30:00,25.1,7.7,30.28,NNW,330,2.0,10.0,47,0.00,,---,0.01,VWS V14.01,2013-02-01 22:30:00,
2013-02-01 17:31:00,26.0,7.1,30.24,WSW,257,3.0,5.0,44,0.00,,---,0.01,VWS V14.01,2013-02-01 22:31:00,
2013-02-01 17:36:00,25.9,7.0,30.24,West,264,1.0,11.0,44,0.00,,---,0.01,VWS V14.01,2013-02-01 22:36:00,
2013-02-01 17:41:00,25.9,7.0,30.24,West,265,2.0,11.0,44,0.00,,---,0.01,VWS V14.01,2013-02-01 22:41:00,
2013-02-01 17:46:00,25.8,6.9,30.25,WNW,285,4.0,11.0,44,0.00,,---,0.01,VWS V14.01,2013-02-01 22:46:00,
2013-02-01 17:51:00,25.8,7.4,30.25,WNW,289,5.0,11.0,45,0.00,,---,0.01,VWS V14.01,2013-02-01 22:51:00,
2013-02-01 17:56:00,25.7,7.3,30.25,WNW,297,4.0,11.0,45,0.00,,---,0.01,VWS V14.01,2013-02-01 22:56:00,
2013-02-01 18:00:00,24.4,7.1,30.30,NNW,334,3.0,6.0,47,0.00,,---,0.01,VWS V14.01,2013-02-01 23:00:00,
2013-02-01 18:01:00,25.6,7.2,30.26,West,265,2.0,4.0,45,0.00,,---,0.01,VWS V14.01,2013-02-01 23:01:00,
2013-02-01 18:06:00,25.5,8.1,30.26,West,266,2.0,5.0,47,0.00,,---,0.01,VWS V14.01,2013-02-01 23:06:00,
2013-02-01 18:11:00,25.4,7.0,30.26,NW,304,4.0,10.0,45,0.00,,---,0.01,VWS V14.01,2013-02-01 23:11:00,
2013-02-01 18:16:00,25.3,6.9,30.27,West,278,1.0,10.0,45,0.00,,---,0.01,VWS V14.01,2013-02-01 23:16:00,
2013-02-01 18:21:00,25.2,6.8,30.27,NW,308,0.0,10.0,45,0.00,,---,0.01,VWS V14.01,2013-02-01 23:21:00,
2013-02-01 18:26:00,25.1,7.2,30.28,West,281,4.0,10.0,46,0.00,,---,0.01,VWS V14.01,2013-02-01 23:26:00,
2013-02-01 18:30:00,24.0,6.7,30.31,WNW,282,6.0,11.0,47,0.00,,---,0.01,VWS V14.01,2013-02-01 23:30:00,
2013-02-01 18:31:00,25.0,7.2,30.28,NNW,330,1.0,2.0,46,0.00,,---,0.01,VWS V14.01,2013-02-01 23:31:00,
2013-02-01 18:36:00,24.9,7.1,30.28,NNW,333,2.0,6.0,46,0.00,,---,0.01,VWS V14.01,2013-02-01 23:36:00,
2013-02-01 18:41:00,24.8,7.0,30.29,West,274,3.0,6.0,46,0.00,,---,0.01,VWS V14.01,2013-02-01 23:41:00,
2013-02-01 18:46:00,24.7,6.9,30.29,NE,49,0.0,6.0,46,0.00,,---,0.01,VWS V14.01,2013-02-01 23:46:00,
2013-02-01 18:51:00,24.7,7.3,30.29,NNW,328,2.0,6.0,47,0.00,,---,0.01,VWS V14.01,2013-02-01 23:51:00,
2013-02-01 18:56:00,24.6,7.3,30.30,NW,319,1.0,6.0,47,0.00,,---,0.01,VWS V14.01,2013-02-01 23:56:00,
2013-02-01 19:00:00,23.7,7.3,30.33,WNW,290,2.0,9.0,49,0.00,,---,0.01,VWS V14.01,2013-02-02 00:00:00,
2013-02-01 19:01:00,24.4,7.1,30.30,NNW,342,3.0,4.0,47,0.00,,---,0.01,VWS V14.01,2013-02-02 00:01:00,
2013-02-01 19:06:00,24.3,7.4,30.30,NW,316,2.0,8.0,48,0.00,,---,0.01,VWS V14.01,2013-02-02 00:06:00,
2013-02-01 19:11:00,24.3,7.0,30.31,West,275,1.0,8.0,47,0.00,,---,0.01,VWS V14.01,2013-02-02 00:11:00,
2013-02-01 19:16:00,24.2,7.3,30.31,WNW,286,0.0,8.0,48,0.00,,---,0.01,VWS V14.01,2013-02-02 00:16:00,
2013-02-01 19:21:00,24.1,7.7,30.31,NW,305,3.0,8.0,49,0.00,,---,0.01,VWS V14.01,2013-02-02 00:21:00,
2013-02-01 19:26:00,24.0,7.2,30.31,West,278,3.0,8.0,48,0.00,,---,0.01,VWS V14.01,2013-02-02 00:26:00,
2013-02-01 19:30:00,23.3,7.9,30.33,West,268,2.0,7.0,51,0.00,,---,0.01,VWS V14.01,2013-02-02 00:30:00,
2013-02-01 19:31:00,24.0,6.7,30.31,West,277,3.0,7.0,47,0.00,,---,0.01,VWS V14.01,2013-02-02 00:31:00,
2013-02-01 19:36:00,24.0,7.2,30.31,NW,309,2.0,9.0,48,0.00,,---,0.01,VWS V14.01,2013-02-02 00:36:00,
2013-02-01 19:41:00,24.0,7.2,30.32,West,271,2.0,9.0,48,0.00,,---,0.01,VWS V14.01,2013-02-02 00:41:00,
2013-02-01 19:46:00,23.9,7.5,30.32,West,280,3.0,9.0,49,0.00,,---,0.01,VWS V14.01,2013-02-02 00:46:00,
2013-02-01 19:51:00,23.8,7.4,30.32,WNW,290,0.0,9.0,49,0.00,,---,0.01,VWS V14.01,2013-02-02 00:51:00,
2013-02-01 19:56:00,23.8,7.4,30.33,West,281,2.0,9.0,49,0.00,,---,0.01,VWS V14.01,2013-02-02 00:56:00,
2013-02-01 20:00:00,22.9,6.6,30.34,West,278,8.0,13.0,49,0.00,,---,0.01,VWS V14.01,2013-02-02 01:00:00,
2013-02-01 20:01:00,23.7,7.3,30.33,NNW,336,0.0,3.0,49,0.00,,---,0.01,VWS V14.01,2013-02-02 01:01:00,
2013-02-01 20:06:00,23.6,7.3,30.33,West,270,0.0,3.0,49,0.00,,---,0.01,VWS V14.01,2013-02-02 01:06:00,
2013-02-01 20:11:00,23.6,7.7,30.33,NNW,329,4.0,5.0,50,0.00,,---,0.01,VWS V14.01,2013-02-02 01:11:00,
2013-02-01 20:16:00,23.5,7.6,30.33,West,280,3.0,5.0,50,0.00,,---,0.01,VWS V14.01,2013-02-02 01:16:00,
2013-02-01 20:21:00,23.4,7.5,30.33,WNW,301,5.0,7.0,50,0.00,,---,0.01,VWS V14.01,2013-02-02 01:21:00,
2013-02-01 20:26:00,23.4,7.9,30.33,West,277,1.0,7.0,51,0.00,,---,0.01,VWS V14.01,2013-02-02 01:26:00,
2013-02-01 20:30:00,22.6,6.8,30.35,NNW,338,1.0,9.0,50,0.00,,---,0.01,VWS V14.01,2013-02-02 01:30:00,
2013-02-01 20:31:00,23.3,7.9,30.33,West,278,2.0,4.0,51,0.00,,---,0.01,VWS V14.01,2013-02-02 01:31:00,
2013-02-01 20:36:00,23.3,7.9,30.33,West,278,2.0,4.0,51,0.00,,---,0.01,VWS V14.01,2013-02-02 01:36:00,
2013-02-01 20:41:00,23.2,8.2,30.33,NW,309,3.0,4.0,52,0.00,,---,0.01,VWS V14.01,2013-02-02 01:41:00,
2013-02-01 20:46:00,23.1,7.7,30.33,West,263,0.0,7.0,51,0.00,,---,0.01,VWS V14.01,2013-02-02 01:46:00,
2013-02-01 20:51:00,23.0,7.1,30.34,WNW,303,2.0,7.0,50,0.00,,---,0.01,VWS V14.01,2013-02-02 01:51:00,
2013-02-01 20:56:00,23.0,7.1,30.34,NW,305,2.0,7.0,50,0.00,,---,0.01,VWS V14.01,2013-02-02 01:56:00,
2013-02-01 21:00:00,22.2,6.8,30.36,WSW,252,2.0,7.0,51,0.00,,---,0.01,VWS V14.01,2013-02-02 02:00:00,
2013-02-01 21:01:00,22.9,6.6,30.34,WNW,288,2.0,8.0,49,0.00,,---,0.01,VWS V14.01,2013-02-02 02:01:00,
2013-02-01 21:06:00,22.9,6.6,30.34,West,277,3.0,8.0,49,0.00,,---,0.01,VWS V14.01,2013-02-02 02:06:00,
2013-02-01 21:11:00,22.8,7.0,30.34,NNW,342,3.0,8.0,50,0.00,,---,0.01,VWS V14.01,2013-02-02 02:11:00,
2013-02-01 21:16:00,22.7,6.4,30.34,NW,321,2.0,9.0,49,0.00,,---,0.01,VWS V14.01,2013-02-02 02:16:00,
2013-02-01 21:21:00,22.7,6.4,30.35,WNW,293,0.0,9.0,49,0.00,,---,0.01,VWS V14.01,2013-02-02 02:21:00,
2013-02-01 21:26:00,22.6,6.3,30.35,WNW,299,1.0,9.0,49,0.00,,---,0.01,VWS V14.01,2013-02-02 02:26:00,
2013-02-01 21:30:00,22.0,7.5,30.37,West,278,0.0,9.0,53,0.00,,---,0.01,VWS V14.01,2013-02-02 02:30:00,
2013-02-01 21:31:00,22.6,6.8,30.35,NNW,338,1.0,1.0,50,0.00,,---,0.01,VWS V14.01,2013-02-02 02:31:00,
2013-02-01 21:36:00,22.5,7.1,30.35,NNE,23,0.0,5.0,51,0.00,,---,0.01,VWS V14.01,2013-02-02 02:36:00,
2013-02-01 21:41:00,22.4,7.4,30.35,WNW,295,3.0,5.0,52,0.00,,---,0.01,VWS V14.01,2013-02-02 02:41:00,
2013-02-01 21:46:00,22.3,6.9,30.36,WNW,302,2.0,5.0,51,0.00,,---,0.01,VWS V14.01,2013-02-02 02:46:00,
2013-02-01 21:51:00,22.3,6.9,30.36,West,261,0.0,7.0,51,0.00,,---,0.01,VWS V14.01,2013-02-02 02:51:00,
2013-02-01 21:56:00,22.2,6.8,30.36,West,275,2.0,7.0,51,0.00,,---,0.01,VWS V14.01,2013-02-02 02:56:00,
2013-02-01 22:00:00,21.6,7.1,30.37,West,270,1.0,10.0,53,0.00,,---,0.01,VWS V14.01,2013-02-02 03:00:00,
2013-02-01 22:01:00,22.2,6.8,30.36,WSW,254,1.0,2.0,51,0.00,,---,0.01,VWS V14.01,2013-02-02 03:01:00,
2013-02-01 22:06:00,22.2,6.8,30.37,WSW,252,0.0,5.0,51,0.00,,---,0.01,VWS V14.01,2013-02-02 03:06:00,
2013-02-01 22:11:00,22.2,6.8,30.37,West,279,5.0,5.0,51,0.00,,---,0.01,VWS V14.01,2013-02-02 03:11:00,
2013-02-01 22:16:00,22.2,6.4,30.37,West,278,2.0,9.0,50,0.00,,---,0.01,VWS V14.01,2013-02-02 03:16:00,
2013-02-01 22:21:00,22.1,6.3,30.37,WNW,294,3.0,9.0,50,0.00,,---,0.01,VWS V14.01,2013-02-02 03:21:00,
2013-02-01 22:26:00,22.0,6.7,30.36,NW,314,2.0,9.0,51,0.00,,---,0.01,VWS V14.01,2013-02-02 03:26:00,
2013-02-01 22:30:00,21.2,7.6,30.38,West,261,0.0,6.0,55,0.00,,---,0.01,VWS V14.01,2013-02-02 03:30:00,
2013-02-01 22:31:00,21.9,7.4,30.37,WNW,288,0.0,2.0,53,0.00,,---,0.01,VWS V14.01,2013-02-02 03:31:00,
2013-02-01 22:36:00,21.9,7.4,30.37,WNW,296,2.0,4.0,53,0.00,,---,0.01,VWS V14.01,2013-02-02 03:36:00,
2013-02-01 22:41:00,21.8,6.9,30.37,West,277,5.0,10.0,52,0.00,,---,0.01,VWS V14.01,2013-02-02 03:41:00,
2013-02-01 22:46:00,21.8,6.5,30.38,WNW,283,2.0,10.0,51,0.00,,---,0.01,VWS V14.01,2013-02-02 03:46:00,
2013-02-01 22:51:00,21.7,6.8,30.38,SSW,209,2.0,10.0,52,0.00,,---,0.01,VWS V14.01,2013-02-02 03:51:00,
2013-02-01 22:56:00,21.7,7.2,30.37,NW,319,3.0,10.0,53,0.00,,---,0.01,VWS V14.01,2013-02-02 03:56:00,
2013-02-01 23:00:00,21.0,7.4,30.39,West,274,0.0,7.0,55,0.00,,---,0.01,VWS V14.01,2013-02-02 04:00:00,
2013-02-01 23:01:00,21.6,7.1,30.38,West,270,0.0,1.0,53,0.00,,---,0.01,VWS V14.01,2013-02-02 04:01:00,
2013-02-01 23:06:00,21.5,7.4,30.38,SW,228,1.0,2.0,54,0.00,,---,0.01,VWS V14.01,2013-02-02 04:06:00,
2013-02-01 23:11:00,21.4,6.5,30.38,West,281,1.0,6.0,52,0.00,,---,0.01,VWS V14.01,2013-02-02 04:11:00,
2013-02-01 23:16:00,21.4,7.3,30.38,WNW,283,0.0,6.0,54,0.00,,---,0.01,VWS V14.01,2013-02-02 04:16:00,
2013-02-01 23:21:00,21.3,8.1,30.38,WNW,282,0.0,6.0,56,0.00,,---,0.01,VWS V14.01,2013-02-02 04:21:00,
2013-02-01 23:26:00,21.2,7.2,30.38,West,276,2.0,6.0,54,0.00,,---,0.01,VWS V14.01,2013-02-02 04:26:00,
2013-02-01 23:30:00,20.7,7.9,30.39,West,276,0.0,5.0,57,0.00,,---,0.00,VWS V14.01,2013-02-02 04:30:00,
2013-02-01 23:31:00,21.2,7.6,30.38,West,261,2.0,2.0,55,0.00,,---,0.01,VWS V14.01,2013-02-02 04:31:00,
2013-02-01 23:36:00,21.1,7.9,30.38,West,276,5.0,6.0,56,0.00,,---,0.01,VWS V14.01,2013-02-02 04:36:00,
2013-02-01 23:41:00,21.1,7.5,30.39,West,266,2.0,6.0,55,0.00,,---,0.01,VWS V14.01,2013-02-02 04:41:00,
2013-02-01 23:46:00,21.1,7.5,30.38,West,278,1.0,7.0,55,0.00,,---,0.01,VWS V14.01,2013-02-02 04:46:00,
2013-02-01 23:51:00,21.1,7.5,30.38,West,279,2.0,7.0,55,0.00,,---,0.01,VWS V14.01,2013-02-02 04:51:00,
2013-02-01 23:56:00,21.1,7.5,30.38,NW,322,5.0,7.0,55,0.00,,---,0.01,VWS V14.01,2013-02-02 04:56:00,